Time;durP1;ratioP1;P1;durP2;ratioP2;P2;SDS_P1;SDS_P2;PMS_P1;PMS_P2;Temp;Humidity;BMP_temperature;BMP_pressure;BME280_temperature;BME280_humidity;BME280_pressure;Samples;Min_cycle;Max_cycle;Signal;HPM_P1;HPM_P2
2024/01/29 00:01:21;;;;;;;8.23;5.95;;;;;;;3.61;63.14;97973.94;4993421;28;20133;-81
2024/01/29 00:03:49;;;;;;;6.85;4.70;;;;;;;3.59;62.85;97981.78;4992521;28;20519;-79
2024/01/29 00:06:17;;;;;;;11.05;5.88;;;;;;;3.60;63.11;97978.25;4993385;28;20415;-80
2024/01/29 00:08:44;;;;;;;9.30;5.82;;;;;;;3.58;62.96;97966.41;4993100;28;20081;-79
2024/01/29 00:11:13;;;;;;;8.98;5.85;;;;;;;3.56;63.68;97976.81;4992949;28;20054;-79
2024/01/29 00:13:41;;;;;;;8.50;6.28;;;;;;;3.54;63.14;97963.19;4992607;28;20058;-79
2024/01/29 00:16:08;;;;;;;9.85;5.22;;;;;;;3.52;63.11;97975.41;4993160;28;20050;-79
2024/01/29 00:18:36;;;;;;;6.93;5.05;;;;;;;3.47;63.12;97959.38;4992967;28;20057;-78
2024/01/29 00:21:04;;;;;;;8.40;6.15;;;;;;;3.42;63.45;97959.69;4992813;28;20057;-80
2024/01/29 00:23:31;;;;;;;7.05;5.68;;;;;;;3.39;63.36;97952.19;4992517;28;20133;-78
2024/01/29 00:25:59;;;;;;;7.85;5.90;;;;;;;3.37;63.77;97950.59;4993099;28;20084;-78
2024/01/29 00:28:28;;;;;;;8.98;5.72;;;;;;;3.32;64.11;97943.19;4992715;28;20078;-80
2024/01/29 00:30:56;;;;;;;8.52;6.00;;;;;;;3.28;63.80;97952.91;4993221;28;20129;-78
2024/01/29 00:33:23;;;;;;;9.10;6.35;;;;;;;3.24;64.19;97955.78;4996210;28;20112;-79
2024/01/29 00:35:54;;;;;;;9.20;5.32;;;;;;;3.22;64.27;97953.31;4996377;28;20050;-79
2024/01/29 00:38:21;;;;;;;7.05;6.13;;;;;;;3.22;64.68;97958.47;4996670;28;20064;-79
2024/01/29 00:40:52;;;;;;;8.55;6.50;;;;;;;3.22;64.89;97966.19;4996514;28;20054;-79
2024/01/29 00:43:20;;;;;;;8.30;5.40;;;;;;;3.19;64.29;97953.53;4996245;28;20081;-79
2024/01/29 00:45:49;;;;;;;8.15;6.28;;;;;;;3.16;64.52;97951.13;4996314;28;20058;-78
2024/01/29 00:48:16;;;;;;;9.27;6.68;;;;;;;3.16;64.73;97951.13;4996090;28;20054;-79
2024/01/29 00:50:44;;;;;;;7.53;6.03;;;;;;;3.17;64.98;97959.69;4996361;28;20062;-83
2024/01/29 00:53:12;;;;;;;9.00;5.85;;;;;;;3.15;65.08;97946.91;4995925;28;20105;-78
2024/01/29 00:55:38;;;;;;;8.43;5.97;;;;;;;3.16;64.79;97958.03;4996134;28;20057;-79
2024/01/29 00:58:06;;;;;;;11.93;6.18;;;;;;;3.13;65.25;97951.34;4996272;28;20133;-79
2024/01/29 01:00:34;;;;;;;9.60;6.50;;;;;;;3.12;65.21;97947.09;4996087;28;20056;-79
2024/01/29 01:03:03;;;;;;;10.52;6.53;;;;;;;3.11;65.04;97942.88;4995598;28;20104;-78
2024/01/29 01:05:31;;;;;;;7.68;6.22;;;;;;;3.08;65.55;97930.19;4995769;28;20050;-79
2024/01/29 01:07:58;;;;;;;9.77;6.13;;;;;;;3.06;65.13;97948.34;4995932;28;20104;-79
2024/01/29 01:10:26;;;;;;;11.43;6.72;;;;;;;3.01;64.93;97934.09;4996049;28;20110;-79
2024/01/29 01:12:54;;;;;;;8.95;6.30;;;;;;;2.98;65.22;97944.63;4995734;28;20090;-78
2024/01/29 01:15:22;;;;;;;8.98;6.38;;;;;;;2.95;65.30;97939.66;4996008;28;20405;-79
2024/01/29 01:17:49;;;;;;;9.90;6.95;;;;;;;2.91;65.94;97933.03;4995679;28;20500;-79
2024/01/29 01:20:18;;;;;;;9.43;6.75;;;;;;;2.89;65.96;97941.72;4995344;28;20057;-79
2024/01/29 01:22:46;;;;;;;10.30;7.22;;;;;;;2.87;65.80;97948.72;4995707;28;20050;-79
2024/01/29 01:25:14;;;;;;;8.85;6.82;;;;;;;2.84;66.06;97948.94;4995418;28;20579;-79
2024/01/29 01:27:42;;;;;;;9.77;6.75;;;;;;;2.82;66.03;97948.19;4995509;28;20047;-79
2024/01/29 01:30:13;;;;;;;12.05;7.10;;;;;;;2.78;66.39;97951.91;4995291;28;20050;-79
2024/01/29 01:32:41;;;;;;;11.13;7.80;;;;;;;2.75;66.05;97949.50;4995166;28;20050;-79
2024/01/29 01:35:08;;;;;;;10.38;7.03;;;;;;;2.72;66.66;97954.88;4995421;28;20416;-78
2024/01/29 01:37:37;;;;;;;7.43;6.65;;;;;;;2.71;66.71;97953.19;4995247;28;20050;-81
2024/01/29 01:40:06;;;;;;;11.40;7.70;;;;;;;2.70;66.63;97961.88;4995240;28;20089;-79
2024/01/29 01:42:34;;;;;;;8.65;7.03;;;;;;;2.67;66.90;97956.94;4994283;28;20042;-79
2024/01/29 01:45:01;;;;;;;10.50;8.73;;;;;;;2.63;66.77;97937.44;4994391;28;20128;-79
2024/01/29 01:47:29;;;;;;;10.23;7.38;;;;;;;2.62;66.90;97951.22;4994818;28;20136;-80
2024/01/29 01:49:59;;;;;;;10.60;7.70;;;;;;;2.58;67.28;97950.63;4994677;28;20496;-79
2024/01/29 01:52:26;;;;;;;9.75;7.55;;;;;;;2.56;67.01;97942.16;4994754;28;20140;-79
2024/01/29 01:54:56;;;;;;;10.90;8.32;;;;;;;2.57;67.22;97951.53;4994370;28;20050;-80
2024/01/29 01:57:23;;;;;;;11.98;7.82;;;;;;;2.54;67.30;97941.44;4994850;28;20080;-80
2024/01/29 01:59:52;;;;;;;12.02;7.68;;;;;;;2.52;67.19;97939.88;4995154;28;20459;-79
2024/01/29 02:02:21;;;;;;;11.48;8.45;;;;;;;2.48;67.62;97937.47;4994674;28;20133;-80
2024/01/29 02:04:48;;;;;;;15.30;8.98;;;;;;;2.48;67.83;97932.34;4994658;28;20504;-78
2024/01/29 02:07:16;;;;;;;10.60;7.65;;;;;;;2.47;67.50;97924.69;4994943;28;20054;-79
2024/01/29 02:09:44;;;;;;;11.23;8.45;;;;;;;2.46;68.04;97928.22;4994025;28;20053;-78
2024/01/29 02:12:13;;;;;;;11.50;7.95;;;;;;;2.44;67.82;97928.28;4992360;28;20412;-79
2024/01/29 02:14:40;;;;;;;12.98;8.10;;;;;;;2.40;68.29;97924.25;4992371;28;20142;-78
2024/01/29 02:17:08;;;;;;;10.25;8.13;;;;;;;2.41;68.50;97928.50;4992551;28;20480;-79
2024/01/29 02:19:36;;;;;;;11.98;8.45;;;;;;;2.40;68.30;97928.59;4992882;28;20060;-78
2024/01/29 02:22:04;;;;;;;12.90;8.95;;;;;;;2.39;68.38;97929.53;4992311;28;20046;-79
2024/01/29 02:24:33;;;;;;;12.63;8.52;;;;;;;2.41;68.92;97925.13;4992460;28;20512;-79
2024/01/29 02:27:01;;;;;;;14.60;8.95;;;;;;;2.39;68.86;97932.94;4994471;28;20340;-78
2024/01/29 02:29:28;;;;;;;12.32;8.82;;;;;;;2.36;69.08;97927.97;4994355;28;20423;-79
2024/01/29 02:31:56;;;;;;;13.05;9.48;;;;;;;2.34;68.94;97926.41;4994206;28;20090;-79
2024/01/29 02:34:23;;;;;;;13.13;9.30;;;;;;;2.33;68.79;97924.75;4993982;28;20078;-78
2024/01/29 02:36:51;;;;;;;12.07;9.60;;;;;;;2.33;69.26;97932.50;4994166;28;20054;-79
2024/01/29 02:39:19;;;;;;;13.43;9.23;;;;;;;2.34;69.21;97928.97;4993970;28;20054;-79
2024/01/29 02:41:48;;;;;;;13.45;8.95;;;;;;;2.35;69.54;97920.34;4994007;28;20046;-79
2024/01/29 02:44:15;;;;;;;12.88;9.85;;;;;;;2.35;68.99;97916.00;4993495;28;20050;-78
2024/01/29 02:46:43;;;;;;;12.38;9.48;;;;;;;2.34;69.27;97919.53;4993837;28;20528;-78
2024/01/29 02:49:11;;;;;;;14.48;9.80;;;;;;;2.33;69.20;97907.56;4993777;28;20046;-79
2024/01/29 02:51:38;;;;;;;13.52;10.23;;;;;;;2.32;69.66;97911.06;4993352;28;20054;-79
2024/01/29 02:54:06;;;;;;;16.13;10.65;;;;;;;2.33;69.74;97904.16;4992986;28;20117;-79
2024/01/29 02:56:33;;;;;;;13.77;10.48;;;;;;;2.34;69.85;97906.66;4993679;28;20046;-79
2024/01/29 02:59:02;;;;;;;16.23;11.38;;;;;;;2.33;70.04;97897.25;4993650;28;20492;-79
2024/01/29 03:01:30;;;;;;;13.88;10.40;;;;;;;2.33;69.55;97897.25;4993587;28;20229;-78
2024/01/29 03:03:57;;;;;;;18.75;11.75;;;;;;;2.33;69.80;97891.28;4993271;28;20081;-80
2024/01/29 03:06:25;;;;;;;16.67;10.90;;;;;;;2.33;70.01;97897.25;4993999;28;20054;-80
2024/01/29 03:08:53;;;;;;;17.35;11.10;;;;;;;2.31;69.82;97903.44;4996559;28;20475;-78
2024/01/29 03:11:20;;;;;;;15.07;11.10;;;;;;;2.30;70.33;97902.63;4996329;28;20145;-79
2024/01/29 03:13:48;;;;;;;19.10;12.52;;;;;;;2.30;70.51;97897.47;4995309;28;20050;-79
2024/01/29 03:16:17;;;;;;;13.90;10.73;;;;;;;2.28;70.60;97909.63;4993535;28;20133;-80
2024/01/29 03:18:44;;;;;;;18.13;11.85;;;;;;;2.28;70.29;97901.88;4994517;28;20483;-79
2024/01/29 03:21:14;;;;;;;15.80;11.18;;;;;;;2.26;70.95;97906.31;4994784;28;20054;-79
2024/01/29 03:23:41;;;;;;;17.30;11.95;;;;;;;2.26;70.39;97901.97;4992885;28;20046;-78
2024/01/29 03:26:09;;;;;;;17.13;12.43;;;;;;;2.27;70.71;97907.94;4993152;28;20556;-79
2024/01/29 03:28:36;;;;;;;18.20;11.30;;;;;;;2.28;70.77;97903.66;4993137;28;20150;-79
2024/01/29 03:31:05;;;;;;;17.30;11.82;;;;;;;2.28;70.68;97903.66;4993014;28;20096;-79
2024/01/29 03:33:34;;;;;;;16.13;11.88;;;;;;;2.29;70.88;97898.38;4992729;28;20077;-79
2024/01/29 03:36:04;;;;;;;16.88;11.43;;;;;;;2.30;71.16;97897.47;4993444;28;20050;-79
2024/01/29 03:38:32;;;;;;;14.18;11.60;;;;;;;2.33;70.87;97899.00;4993347;28;20460;-79
2024/01/29 03:41:00;;;;;;;15.07;11.90;;;;;;;2.34;71.05;97893.78;4993032;28;20531;-78
2024/01/29 03:43:28;;;;;;;16.27;11.90;;;;;;;2.37;71.40;97891.00;4992823;28;20076;-79
2024/01/29 03:45:55;;;;;;;15.63;11.57;;;;;;;2.41;71.10;97902.75;4992982;28;20057;-79
2024/01/29 03:48:23;;;;;;;15.00;10.75;;;;;;;2.44;71.12;97899.97;4993257;28;20487;-79
2024/01/29 03:50:52;;;;;;;15.02;11.90;;;;;;;2.46;71.44;97892.97;4992839;28;20057;-79
2024/01/29 03:53:19;;;;;;;18.13;12.65;;;;;;;2.47;71.67;97897.22;4992832;28;20050;-78
2024/01/29 03:55:47;;;;;;;16.08;11.65;;;;;;;2.50;71.24;97888.47;4992784;28;20102;-79
2024/01/29 03:58:15;;;;;;;17.02;11.75;;;;;;;2.51;71.54;97894.44;4992895;28;20046;-81
2024/01/29 04:00:43;;;;;;;17.75;12.23;;;;;;;2.50;71.63;97887.63;4993045;28;20054;-78
2024/01/29 04:03:10;;;;;;;16.35;11.73;;;;;;;2.50;71.28;97896.19;4992623;28;20463;-79
2024/01/29 04:05:38;;;;;;;16.98;11.85;;;;;;;2.51;71.66;97890.09;4992907;28;20101;-79
2024/01/29 04:08:07;;;;;;;14.98;11.85;;;;;;;2.51;71.54;97882.38;4996948;28;20050;-79
2024/01/29 04:10:35;;;;;;;14.02;11.13;;;;;;;2.50;71.39;97890.22;4998997;28;20061;-80
2024/01/29 04:13:02;;;;;;;15.57;11.20;;;;;;;2.47;71.07;97898.94;5023398;23;20507;-77
2024/01/29 04:15:30;;;;;;;17.33;12.23;;;;;;;2.46;71.21;97895.53;4997591;28;20101;-77
2024/01/29 04:17:58;;;;;;;14.77;11.07;;;;;;;2.46;71.73;97895.53;4997889;28;20046;-78
2024/01/29 04:20:26;;;;;;;16.42;11.73;;;;;;;2.47;71.56;97904.09;4998217;28;20049;-78
2024/01/29 04:22:53;;;;;;;16.17;12.77;;;;;;;2.44;71.42;97897.38;4998434;28;20094;-77
2024/01/29 04:25:23;;;;;;;17.80;12.68;;;;;;;2.44;71.52;97904.31;4998228;28;20133;-77
2024/01/29 04:27:51;;;;;;;16.70;12.07;;;;;;;2.41;71.59;97895.03;4998728;28;20058;-77
2024/01/29 04:30:19;;;;;;;19.08;12.68;;;;;;;2.39;71.55;97889.16;4998124;28;20096;-77
2024/01/29 04:32:46;;;;;;;15.73;12.18;;;;;;;2.37;71.67;97897.91;4998437;28;20129;-77
2024/01/29 04:35:14;;;;;;;18.25;12.90;;;;;;;2.35;71.94;97894.59;4998068;28;20046;-77
2024/01/29 04:37:42;;;;;;;16.83;12.15;;;;;;;2.33;72.15;97892.09;4997906;28;20130;-78
2024/01/29 04:40:12;;;;;;;21.63;13.25;;;;;;;2.31;71.87;97886.22;4998242;28;20097;-78
2024/01/29 04:42:41;;;;;;;19.63;13.20;;;;;;;2.26;72.03;97903.72;4998037;28;20056;-77
2024/01/29 04:45:09;;;;;;;19.08;12.63;;;;;;;2.24;71.95;97905.56;4997722;28;20054;-77
2024/01/29 04:47:37;;;;;;;22.63;13.00;;;;;;;2.23;71.95;97909.91;4997827;28;20089;-78
2024/01/29 04:50:06;;;;;;;18.38;13.02;;;;;;;2.24;72.32;97905.56;4997928;28;20181;-78
2024/01/29 04:52:34;;;;;;;17.45;11.93;;;;;;;2.23;72.03;97903.91;4997333;28;20054;-77
2024/01/29 04:55:01;;;;;;;20.55;14.15;;;;;;;2.22;71.92;97907.41;4997506;28;20085;-77
2024/01/29 04:57:32;;;;;;;19.83;13.32;;;;;;;2.20;72.26;97904.13;4998234;28;20057;-77
2024/01/29 05:00:01;;;;;;;22.55;13.15;;;;;;;2.19;72.28;97897.34;4997988;28;20137;-77
2024/01/29 05:02:29;;;;;;;17.30;13.95;;;;;;;2.18;72.43;97901.63;4997614;28;20145;-77
2024/01/29 05:04:59;;;;;;;20.55;15.00;;;;;;;2.18;72.63;97900.81;4997430;28;20046;-80
2024/01/29 05:07:27;;;;;;;21.02;13.82;;;;;;;2.17;72.33;97900.00;4997586;28;20046;-80
2024/01/29 05:09:55;;;;;;;20.00;13.88;;;;;;;2.17;72.41;97891.44;4996748;28;20046;-80
2024/01/29 05:12:23;;;;;;;22.92;14.50;;;;;;;2.17;72.65;97906.91;4996330;28;20113;-80
2024/01/29 05:14:51;;;;;;;24.88;15.20;;;;;;;2.14;72.24;97902.75;4995859;28;20061;-80
2024/01/29 05:17:20;;;;;;;19.98;13.80;;;;;;;2.14;72.55;97904.50;4996348;28;20141;-80
2024/01/29 05:19:47;;;;;;;22.27;15.20;;;;;;;2.09;72.75;97898.81;4996124;28;20053;-80
2024/01/29 05:22:15;;;;;;;21.40;15.52;;;;;;;2.06;72.48;97900.66;5002112;28;20082;-78
2024/01/29 05:24:43;;;;;;;22.25;15.32;;;;;;;2.04;72.33;97912.81;4997332;28;20133;-78
2024/01/29 05:27:11;;;;;;;22.75;16.63;;;;;;;2.06;72.83;97915.28;4997063;28;20052;-78
2024/01/29 05:29:38;;;;;;;20.88;13.82;;;;;;;2.05;72.79;97914.44;4997576;28;20489;-78
2024/01/29 05:32:06;;;;;;;22.00;15.75;;;;;;;2.05;72.70;97905.91;4996364;28;20514;-78
2024/01/29 05:34:35;;;;;;;27.48;16.20;;;;;;;2.05;72.78;97919.59;4996295;28;20051;-78
2024/01/29 05:37:03;;;;;;;24.90;16.42;;;;;;;2.04;72.67;97912.00;4996833;28;20133;-78
2024/01/29 05:39:31;;;;;;;24.13;16.40;;;;;;;2.01;72.44;97907.00;4996529;28;20076;-78
2024/01/29 05:41:59;;;;;;;24.35;17.25;;;;;;;1.99;72.54;97908.84;4996313;28;20075;-78
2024/01/29 05:44:26;;;;;;;24.60;17.33;;;;;;;1.98;72.89;97904.66;4996085;28;20053;-78
2024/01/29 05:46:54;;;;;;;25.50;17.15;;;;;;;1.96;72.75;97915.03;4996316;28;20096;-78
2024/01/29 05:49:22;;;;;;;26.63;18.38;;;;;;;1.93;73.00;97910.09;4998916;28;20148;-78
2024/01/29 05:51:52;;;;;;;26.02;16.63;;;;;;;1.92;72.93;97910.97;4994939;28;20057;-78
2024/01/29 05:54:19;;;;;;;23.25;16.73;;;;;;;1.94;72.72;97913.47;5006173;28;20042;-78
2024/01/29 05:56:47;;;;;;;24.80;17.15;;;;;;;1.98;73.48;97920.91;5002227;28;20050;-78
2024/01/29 05:59:18;;;;;;;24.30;18.45;;;;;;;2.01;73.24;97920.72;5007650;28;20046;-77
2024/01/29 06:01:46;;;;;;;26.65;18.48;;;;;;;2.03;72.93;97931.75;5012334;28;20050;-78
2024/01/29 06:04:14;;;;;;;25.52;18.85;;;;;;;2.02;72.71;97935.22;5011457;28;20054;-77
2024/01/29 06:06:43;;;;;;;25.98;18.40;;;;;;;1.98;72.72;97933.78;5011791;28;20054;-78
2024/01/29 06:09:12;;;;;;;26.88;18.50;;;;;;;1.98;72.88;97925.22;5016100;28;20061;-77
2024/01/29 06:11:40;;;;;;;26.88;18.67;;;;;;;1.98;73.10;97925.22;5012837;28;20042;-76
2024/01/29 06:14:07;;;;;;;28.35;19.02;;;;;;;1.98;72.69;97928.63;5014314;28;20045;-78
2024/01/29 06:16:35;;;;;;;26.52;17.05;;;;;;;1.98;72.51;97925.22;5015079;28;20428;-78
2024/01/29 06:19:03;;;;;;;24.33;16.92;;;;;;;1.97;72.58;97924.41;5017327;28;20053;-77
2024/01/29 06:21:31;;;;;;;26.42;17.15;;;;;;;1.96;72.29;97930.47;5016721;28;20049;-77
2024/01/29 06:23:58;;;;;;;26.08;16.98;;;;;;;1.93;72.55;97925.53;5015440;28;20056;-77
2024/01/29 06:26:27;;;;;;;28.50;17.67;;;;;;;1.94;72.63;97931.47;5001126;28;20146;-77
2024/01/29 06:28:55;;;;;;;32.70;19.60;;;;;;;1.94;72.39;97937.44;4995813;28;20046;-77
2024/01/29 06:31:24;;;;;;;28.35;17.25;;;;;;;1.89;71.86;97923.25;5006055;28;20613;-77
2024/01/29 06:33:53;;;;;;;29.83;19.35;;;;;;;1.84;72.08;97937.22;5015091;28;20136;-77
2024/01/29 06:36:24;;;;;;;;;;;;;;;1.84;72.56;97928.66;5015913;28;20470;-80
2024/01/29 06:38:52;;;;;;;28.23;17.58;;;;;;;1.78;71.84;97923.91;5014180;28;20477;-79
2024/01/29 06:41:20;;;;;;;28.08;18.35;;;;;;;1.74;72.03;97930.16;4991680;28;20129;-80
2024/01/29 06:43:49;;;;;;;32.22;18.67;;;;;;;1.74;72.56;97928.38;4975089;28;20046;-82
2024/01/29 06:46:17;;;;;;;27.42;17.60;;;;;;;1.74;71.90;97943.00;4997813;28;20066;-81
2024/01/29 06:48:44;;;;;;;26.15;16.95;;;;;;;1.76;72.31;97941.16;4986979;28;20135;-81
2024/01/29 06:51:14;;;;;;;27.13;17.40;;;;;;;1.78;72.08;97952.19;4990294;28;20088;-81
2024/01/29 06:53:43;;;;;;;25.88;16.92;;;;;;;1.80;71.98;97952.94;4997721;28;20069;-81
2024/01/29 06:56:10;;;;;;;25.98;17.80;;;;;;;1.79;71.99;97954.69;5002199;28;20046;-81
2024/01/29 06:58:38;;;;;;;27.05;16.95;;;;;;;1.78;72.06;97953.00;4994591;28;20054;-81
2024/01/29 07:01:07;;;;;;;27.65;19.23;;;;;;;1.76;72.41;97957.41;4998863;28;20483;-82
2024/01/29 07:03:35;;;;;;;29.25;17.02;;;;;;;1.76;72.15;97965.13;4993780;28;20076;-81
2024/01/29 07:06:03;;;;;;;25.85;16.80;;;;;;;1.79;72.29;97956.41;4981191;28;20731;-82
2024/01/29 07:08:31;;;;;;;22.23;16.35;;;;;;;1.81;72.71;97962.28;4982769;28;20122;-82
2024/01/29 07:10:59;;;;;;;24.65;16.10;;;;;;;1.85;72.61;97966.31;4993624;28;20042;-81
2024/01/29 07:13:26;;;;;;;24.33;16.65;;;;;;;1.88;72.58;97965.31;4994162;28;20081;-82
2024/01/29 07:15:54;;;;;;;22.08;16.33;;;;;;;1.90;72.31;97966.88;4995178;28;20050;-82
2024/01/29 07:18:23;;;;;;;24.40;14.82;;;;;;;1.92;72.33;97964.22;5005650;28;20050;-82
2024/01/29 07:20:51;;;;;;;20.98;16.10;;;;;;;1.89;71.82;97967.78;5014553;28;20042;-82
2024/01/29 07:23:19;;;;;;;23.55;15.60;;;;;;;1.89;72.11;97970.38;5013590;28;20108;-83
2024/01/29 07:25:46;;;;;;;22.00;15.55;;;;;;;1.91;72.10;97970.28;5015902;28;20136;-83
2024/01/29 07:28:14;;;;;;;24.55;15.88;;;;;;;1.92;71.66;97970.16;5013642;28;20116;-82
2024/01/29 07:30:41;;;;;;;23.38;15.93;;;;;;;1.91;71.62;97973.69;5004895;28;20105;-82
2024/01/29 07:33:10;;;;;;;23.80;16.80;;;;;;;1.91;71.71;97967.72;5009349;28;20111;-82
2024/01/29 07:35:39;;;;;;;28.27;17.23;;;;;;;1.90;71.77;97966.88;5014159;28;20084;-82
2024/01/29 07:38:07;;;;;;;23.13;16.40;;;;;;;1.92;71.84;97964.22;5007592;28;20104;-82
2024/01/29 07:40:35;;;;;;;25.63;15.50;;;;;;;1.95;71.70;97969.19;5001823;28;20080;-82
2024/01/29 07:43:02;;;;;;;20.90;15.18;;;;;;;1.97;71.63;97975.06;5007599;28;20410;-82
2024/01/29 07:45:30;;;;;;;25.48;15.45;;;;;;;2.00;71.64;97982.59;5006892;28;20053;-82
2024/01/29 07:47:59;;;;;;;23.02;14.98;;;;;;;2.05;71.70;97971.06;5002587;28;20042;-82
2024/01/29 07:50:26;;;;;;;26.58;16.38;;;;;;;2.10;71.78;97972.53;5012324;28;20058;-82
2024/01/29 07:52:55;;;;;;;22.90;16.35;;;;;;;2.12;71.04;97978.41;4994788;28;20084;-82
2024/01/29 07:55:24;;;;;;;25.27;16.13;;;;;;;2.13;71.36;97978.31;4995656;28;20566;-83
2024/01/29 07:57:52;;;;;;;24.92;16.75;;;;;;;2.14;70.94;97974.00;4996856;28;20539;-80
2024/01/29 08:00:21;;;;;;;23.02;15.18;;;;;;;2.16;71.09;97983.28;5011763;28;20050;-80
2024/01/29 08:02:48;;;;;;;23.02;16.23;;;;;;;2.22;71.09;97976.94;4998386;28;20047;-79
2024/01/29 08:05:16;;;;;;;22.40;15.38;;;;;;;2.27;70.56;97990.34;5016292;28;20056;-79
2024/01/29 08:07:44;;;;;;;21.40;14.88;;;;;;;2.29;70.71;97983.34;5016004;28;20053;-82
2024/01/29 08:10:13;;;;;;;21.48;16.02;;;;;;;2.32;70.73;97993.47;4996681;28;20153;-83
2024/01/29 08:12:40;;;;;;;22.90;16.70;;;;;;;2.38;70.24;97998.22;4996731;28;20419;-82
2024/01/29 08:15:08;;;;;;;25.75;17.35;;;;;;;2.42;70.22;97997.09;4997661;28;20664;-82
2024/01/29 08:17:36;;;;;;;23.98;17.30;;;;;;;2.46;69.98;98001.13;4992943;28;20057;-82
2024/01/29 08:20:05;;;;;;;26.83;16.73;;;;;;;2.52;70.08;98004.28;4974469;28;20051;-82
2024/01/29 08:22:32;;;;;;;29.05;18.67;;;;;;;2.56;69.85;98000.56;4988516;28;20041;-80
2024/01/29 08:25:00;;;;;;;28.70;19.45;;;;;;;2.58;69.63;97998.72;4998429;28;20088;-80
2024/01/29 08:27:31;;;;;;;29.13;17.70;;;;;;;2.61;69.43;97980.50;4998661;28;20058;-80
2024/01/29 08:29:58;;;;;;;25.85;16.77;;;;;;;2.65;69.58;97989.69;4994162;28;20069;-82
2024/01/29 08:32:26;;;;;;;22.17;15.75;;;;;;;2.69;69.24;97978.28;5010148;28;20104;-82
2024/01/29 08:34:54;;;;;;;20.40;15.13;;;;;;;2.72;69.10;97985.78;5013758;28;20054;-80
2024/01/29 08:37:21;;;;;;;33.65;18.50;;;;;;;2.77;69.05;97990.63;5013721;28;20574;-83
2024/01/29 08:39:49;;;;;;;26.45;17.45;;;;;;;2.81;68.87;97982.63;5012841;28;20137;-82
2024/01/29 08:42:17;;;;;;;27.60;19.10;;;;;;;2.90;69.21;97973.47;5012977;28;20081;-82
2024/01/29 08:44:46;;;;;;;29.55;18.88;;;;;;;2.99;69.06;97979.78;5008930;28;20070;-82
2024/01/29 08:47:13;;;;;;;28.77;19.05;;;;;;;3.11;68.88;97991.03;5001460;28;20109;-82
2024/01/29 08:49:41;;;;;;;32.08;21.17;;;;;;;3.19;68.22;97984.47;5013307;28;20579;-82
2024/01/29 08:52:09;;;;;;;34.85;21.42;;;;;;;3.29;67.96;97979.50;5017339;28;20136;-83
2024/01/29 08:54:38;;;;;;;35.25;22.00;;;;;;;3.37;67.51;97989.28;5017085;28;20081;-82
2024/01/29 08:57:05;;;;;;;36.30;21.88;;;;;;;3.46;67.61;97984.34;5017455;28;20046;-82
2024/01/29 08:59:33;;;;;;;30.77;20.15;;;;;;;3.59;67.38;97988.72;5015064;28;20045;-83
2024/01/29 09:02:03;;;;;;;28.90;17.88;;;;;;;3.69;66.98;97989.72;5013306;28;20073;-83
2024/01/29 09:04:31;;;;;;;29.05;18.67;;;;;;;3.81;67.36;97995.81;5010794;28;20054;-83
2024/01/29 09:06:59;;;;;;;29.25;18.20;;;;;;;3.93;66.66;97997.53;5008038;28;20061;-83
2024/01/29 09:09:27;;;;;;;28.73;19.40;;;;;;;4.06;66.09;98000.91;5006692;28;20061;-83
2024/01/29 09:11:55;;;;;;;29.77;19.05;;;;;;;4.18;66.37;98001.03;5010833;28;20046;-83
2024/01/29 09:14:24;;;;;;;32.15;19.75;;;;;;;4.34;65.76;98011.91;5016178;28;20054;-83
2024/01/29 09:16:52;;;;;;;28.98;19.05;;;;;;;4.52;65.17;98013.19;5011988;28;20050;-83
2024/01/29 09:19:23;;;;;;;31.10;19.05;;;;;;;4.69;64.46;98013.75;5012630;28;20114;-83
2024/01/29 09:21:51;;;;;;;28.83;17.77;;;;;;;4.85;64.41;98008.31;5030567;28;20046;-83
2024/01/29 09:24:20;;;;;;;32.50;20.83;;;;;;;5.01;63.82;98019.19;5030433;28;20054;-83
2024/01/29 09:26:47;;;;;;;32.67;21.02;;;;;;;5.18;63.63;98015.34;5008093;28;20049;-83
2024/01/29 09:29:43;;;;;;;37.33;23.60;;;;;;;5.37;62.71;98025.19;5193682;23;20025;-80
2024/01/29 09:37:54;;;;;;;34.20;23.50;;;;;;;6.03;60.61;98027.97;5399767;23;20065;-80
2024/01/29 09:40:22;;;;;;;34.10;21.85;;;;;;;6.28;60.85;98031.28;5039955;28;20072;-82
2024/01/29 09:42:57;;;;;;;35.28;21.35;;;;;;;6.56;60.25;98025.59;5038777;28;20054;-82
2024/01/29 09:45:26;;;;;;;32.17;20.67;;;;;;;6.92;59.46;98044.34;5016378;28;20054;-82
2024/01/29 09:47:57;;;;;;;32.05;20.55;;;;;;;7.27;58.13;98045.03;4999986;28;20114;-82
2024/01/29 09:50:29;;;;;;;30.63;19.23;;;;;;;7.62;57.49;98040.34;5004488;28;20043;-82
2024/01/29 09:53:01;;;;;;;26.17;19.25;;;;;;;7.95;55.94;98035.88;5181038;23;20121;-81
2024/01/29 09:55:30;;;;;;;27.08;17.70;;;;;;;8.26;55.50;98041.06;5018974;28;20054;-82
2024/01/29 09:57:58;;;;;;;30.92;19.85;;;;;;;8.57;55.24;98043.63;5013542;28;20141;-82
2024/01/29 10:00:26;;;;;;;31.70;21.45;;;;;;;8.85;54.71;98050.69;5019532;28;20046;-82
2024/01/29 10:03:02;;;;;;;34.00;21.60;;;;;;;9.15;53.19;98046.31;5017723;28;20074;-82
2024/01/29 10:05:31;;;;;;;31.65;20.63;;;;;;;9.45;53.23;98041.94;5019577;28;20030;-80
2024/01/29 10:08:01;;;;;;;25.50;17.70;;;;;;;9.79;52.72;98044.03;5020767;28;20531;-81
2024/01/29 10:10:34;;;;;;;24.52;17.13;;;;;;;10.13;51.41;98043.53;5019255;28;20114;-82
2024/01/29 10:13:04;;;;;;;24.73;15.55;;;;;;;10.48;51.42;98045.47;5008282;28;20034;-82
2024/01/29 10:15:35;;;;;;;21.25;16.60;;;;;;;10.83;50.51;98049.91;5006845;28;20401;-80
2024/01/29 10:18:06;;;;;;;27.23;18.20;;;;;;;11.17;50.26;98058.88;5013789;28;20057;-80
2024/01/29 10:20:37;;;;;;;23.52;16.08;;;;;;;11.51;48.26;98057.22;5011841;28;20081;-80
2024/01/29 10:23:06;;;;;;;27.40;19.25;;;;;;;11.83;47.72;98050.59;5010417;28;20100;-80
2024/01/29 10:25:38;;;;;;;27.35;18.77;;;;;;;12.13;47.28;98045.88;5012103;28;20054;-80
2024/01/29 10:28:10;;;;;;;;;;;;;;;12.44;46.45;98055.81;5018256;28;20035;-80
2024/01/29 10:30:53;;;;;;;29.85;19.02;;;;;;;12.72;46.51;98053.78;5014770;28;19922;-80
2024/01/29 10:33:22;;;;;;;27.40;19.23;;;;;;;12.97;45.55;98062.53;5010763;28;20057;-80
2024/01/29 10:35:51;;;;;;;24.83;17.48;;;;;;;13.28;45.97;98048.81;5011659;28;20118;-80
2024/01/29 10:38:28;;;;;;;25.40;16.92;;;;;;;13.63;43.30;98050.31;5015921;28;20074;-80
2024/01/29 10:40:57;;;;;;;;;;;;;;;13.98;43.48;98051.72;5018490;28;20057;-80
2024/01/29 10:49:40;;;;;;;20.58;15.75;;;;;;;14.90;42.59;98045.16;5410421;22;20049;-81
2024/01/29 11:21:59;;;;;;;14.82;11.98;;;;;;;17.98;34.19;98012.75;4975805;28;20054;-79
2024/01/29 11:24:32;;;;;;;13.40;10.75;;;;;;;18.14;35.55;98008.97;4989908;28;20035;-78
2024/01/29 11:27:08;;;;;;;13.52;11.57;;;;;;;18.38;33.67;98012.94;4979641;28;20042;-81
2024/01/29 11:29:37;;;;;;;14.70;11.60;;;;;;;18.56;33.83;98006.31;4980975;28;20057;-81
2024/01/29 11:32:06;;;;;;;13.82;10.05;;;;;;;18.71;34.09;97999.03;4983667;28;20043;-82
2024/01/29 11:34:40;;;;;;;13.35;10.60;;;;;;;18.82;35.07;98001.13;4979597;28;20073;-83
2024/01/29 11:37:09;;;;;;;14.60;10.48;;;;;;;19.02;33.22;98000.34;4992596;28;20031;-84
2024/01/29 11:39:43;;;;;;;12.85;11.05;;;;;;;19.16;33.03;97996.72;4993228;28;20082;-84
2024/01/29 11:42:12;;;;;;;18.67;10.68;;;;;;;19.31;33.63;97996.53;4966359;28;20078;-84
2024/01/29 11:44:41;;;;;;;15.20;10.45;;;;;;;19.46;32.36;97996.28;4969681;28;20043;-84
2024/01/29 11:47:09;;;;;;;15.18;10.68;;;;;;;19.60;32.70;97995.28;4965101;28;20102;-83
2024/01/29 11:49:38;;;;;;;12.05;9.82;;;;;;;19.84;32.21;97993.03;4973035;28;20066;-81
2024/01/29 11:52:10;;;;;;;16.15;11.10;;;;;;;20.12;31.53;97988.28;4956844;28;20055;-82
2024/01/29 11:54:38;;;;;;;13.55;10.48;;;;;;;20.30;32.58;97984.16;4972689;28;20096;-82
2024/01/29 11:57:07;;;;;;;14.88;9.82;;;;;;;20.48;31.75;97978.97;4973532;28;20504;-80
2024/01/29 11:59:44;;;;;;;13.23;10.30;;;;;;;20.62;32.07;97989.53;4974559;28;20086;-81
2024/01/29 12:02:11;;;;;;;13.68;10.65;;;;;;;20.73;30.95;97983.56;4962894;28;20508;-75
2024/01/29 12:04:39;;;;;;;14.93;10.27;;;;;;;20.82;30.98;97987.59;4972010;28;20051;-75
2024/01/29 12:07:07;;;;;;;14.05;11.02;;;;;;;20.90;30.09;97982.03;4971161;28;20094;-75
2024/01/29 12:09:40;;;;;;;12.57;10.68;;;;;;;21.03;29.83;97982.97;4972466;28;20507;-75
2024/01/29 12:12:08;;;;;;;13.05;11.02;;;;;;;21.13;29.46;97983.31;4963514;28;20489;-81
2024/01/29 12:14:36;;;;;;;15.30;11.30;;;;;;;21.27;29.38;97984.81;4956284;29;20106;-81
2024/01/29 12:17:05;;;;;;;11.90;9.43;;;;;;;21.48;29.74;97983.66;4972130;28;20053;-81